createdAt,value
2018-06-30T00:01:17.551Z,10.23
2018-06-30T00:03:50.887Z,9.67
2018-06-30T00:06:18.602Z,8.07
2018-06-30T00:08:46.236Z,8.20
2018-06-30T00:11:15.040Z,9.63
2018-06-30T00:13:42.777Z,6.83
2018-06-30T00:16:13.050Z,8.77
2018-06-30T00:18:41.013Z,14.17
2018-06-30T00:21:09.127Z,9.67
2018-06-30T00:23:36.995Z,9.27
2018-06-30T00:26:05.273Z,11.47
2018-06-30T00:28:32.932Z,6.53
2018-06-30T00:31:00.522Z,9.93
2018-06-30T00:33:28.096Z,11.37
2018-06-30T00:35:55.743Z,7.97
2018-06-30T00:38:23.455Z,10.57
2018-06-30T00:40:51.260Z,9.40
2018-06-30T00:43:18.864Z,10.47
2018-06-30T00:45:46.431Z,11.00
2018-06-30T00:48:14.002Z,10.00
2018-06-30T00:50:41.641Z,13.80
2018-06-30T00:53:09.248Z,11.67
2018-06-30T00:55:36.878Z,13.80
2018-06-30T00:58:05.031Z,11.03
2018-06-30T01:00:32.692Z,10.43
2018-06-30T01:03:00.482Z,9.63
2018-06-30T01:05:28.096Z,12.80
2018-06-30T01:07:55.757Z,13.13
2018-06-30T01:10:24.311Z,11.73
2018-06-30T01:12:51.894Z,15.80
2018-06-30T01:15:19.481Z,15.07
2018-06-30T01:17:47.107Z,11.67
2018-06-30T01:20:14.647Z,13.87
2018-06-30T01:22:42.313Z,8.47
2018-06-30T01:25:09.973Z,11.53
2018-06-30T01:27:37.500Z,12.97
2018-06-30T01:30:06.428Z,15.90
2018-06-30T01:32:33.995Z,14.93
2018-06-30T01:35:01.632Z,14.53
2018-06-30T01:37:29.302Z,18.00
2018-06-30T01:39:56.911Z,16.10
2018-06-30T01:42:24.499Z,11.13
2018-06-30T01:44:52.048Z,11.80
2018-06-30T01:47:19.608Z,14.70
2018-06-30T01:49:47.175Z,12.60
2018-06-30T01:52:14.747Z,14.10
2018-06-30T01:54:42.389Z,14.43
2018-06-30T01:57:10.024Z,14.67
2018-06-30T01:59:37.887Z,15.43
2018-06-30T02:02:05.467Z,15.17
2018-06-30T02:04:33.172Z,13.53
2018-06-30T02:07:00.811Z,13.77
2018-06-30T02:09:28.327Z,17.40
2018-06-30T02:11:55.887Z,15.27
2018-06-30T02:14:23.432Z,15.33
2018-06-30T02:16:51.133Z,16.60
2018-06-30T02:19:18.677Z,17.13
2018-06-30T02:21:46.293Z,13.53
2018-06-30T02:24:13.927Z,14.47
2018-06-30T02:26:41.666Z,15.00
2018-06-30T02:29:09.303Z,15.53
2018-06-30T02:31:36.919Z,13.03
2018-06-30T02:34:04.535Z,14.93
2018-06-30T02:36:32.032Z,14.80
2018-06-30T02:38:59.941Z,14.60
2018-06-30T02:41:27.611Z,13.93
2018-06-30T02:43:55.220Z,16.40
2018-06-30T02:46:22.881Z,12.97
2018-06-30T02:48:50.429Z,17.27
2018-06-30T02:51:18.092Z,17.33
2018-06-30T02:53:45.720Z,16.53
2018-06-30T02:56:13.877Z,18.03
2018-06-30T02:58:42.223Z,15.03
2018-06-30T03:01:09.872Z,13.90
2018-06-30T03:03:37.452Z,19.63
2018-06-30T03:06:05.111Z,16.17
2018-06-30T03:08:32.648Z,19.87
2018-06-30T03:11:00.280Z,15.03
2018-06-30T03:13:27.873Z,18.00
2018-06-30T03:15:55.419Z,17.60
2018-06-30T03:18:23.012Z,18.47
2018-06-30T03:20:50.714Z,19.30
2018-06-30T03:23:18.198Z,19.20
2018-06-30T03:25:45.803Z,16.00
2018-06-30T03:28:13.397Z,19.40
2018-06-30T03:30:40.999Z,17.07
2018-06-30T03:33:08.620Z,16.17
2018-06-30T03:35:36.316Z,19.30
2018-06-30T03:38:04.163Z,18.63
2018-06-30T03:40:31.840Z,22.03
2018-06-30T03:43:00.076Z,18.63
2018-06-30T03:45:27.616Z,18.57
2018-06-30T03:47:55.195Z,20.03
2018-06-30T03:50:22.816Z,22.90
2018-06-30T03:52:50.371Z,20.77
2018-06-30T03:55:18.036Z,21.10
2018-06-30T03:57:45.580Z,16.53
2018-06-30T04:00:13.151Z,19.47
2018-06-30T04:02:40.703Z,23.10
2018-06-30T04:05:08.301Z,18.50
2018-06-30T04:07:35.838Z,24.33
2018-06-30T04:10:03.447Z,21.30
2018-06-30T04:12:30.980Z,18.90
2018-06-30T04:14:58.710Z,18.70
2018-06-30T04:17:26.303Z,20.10
2018-06-30T04:19:53.883Z,20.77
2018-06-30T04:22:21.464Z,21.83
2018-06-30T04:24:49.021Z,18.63
2018-06-30T04:27:16.632Z,22.40
2018-06-30T04:29:44.380Z,20.40
2018-06-30T04:32:11.916Z,21.03
2018-06-30T04:34:39.524Z,22.47
2018-06-30T04:37:07.080Z,22.60
2018-06-30T04:39:34.651Z,20.27
2018-06-30T04:42:02.272Z,17.83
2018-06-30T04:44:29.899Z,18.83
2018-06-30T04:46:57.499Z,22.93
2018-06-30T04:49:25.144Z,19.47
2018-06-30T04:51:52.867Z,21.60
2018-06-30T04:54:20.479Z,25.83
2018-06-30T04:56:48.048Z,20.63
2018-06-30T04:59:15.635Z,19.17
2018-06-30T05:01:43.273Z,23.53
2018-06-30T05:04:10.842Z,19.27
2018-06-30T05:06:38.424Z,22.67
2018-06-30T05:09:06.955Z,20.00
2018-06-30T05:11:36.882Z,21.17
2018-06-30T05:14:04.472Z,21.30
2018-06-30T05:16:32.045Z,20.57
2018-06-30T05:18:59.507Z,19.60
2018-06-30T05:21:27.036Z,21.87
2018-06-30T05:23:54.592Z,24.07
2018-06-30T05:26:22.106Z,19.97
2018-06-30T05:28:49.683Z,22.00
2018-06-30T05:31:17.259Z,17.20
2018-06-30T05:33:44.860Z,18.83
2018-06-30T05:36:12.460Z,18.83
2018-06-30T05:38:40.065Z,19.53
2018-06-30T05:41:08.126Z,18.83
2018-06-30T05:43:35.715Z,16.33
2018-06-30T05:46:03.271Z,17.00
2018-06-30T05:48:30.841Z,17.57
2018-06-30T05:50:58.397Z,19.83
2018-06-30T05:53:25.998Z,19.17
2018-06-30T05:55:53.572Z,18.10
2018-06-30T05:58:21.233Z,18.70
2018-06-30T06:00:48.795Z,18.43
2018-06-30T06:03:16.408Z,22.47
2018-06-30T06:05:44.040Z,18.50
2018-06-30T06:08:11.728Z,18.90
2018-06-30T06:10:39.286Z,19.27
2018-06-30T06:13:06.906Z,17.07
2018-06-30T06:15:34.503Z,16.43
2018-06-30T06:18:02.152Z,18.70
2018-06-30T06:20:32.598Z,17.43
2018-06-30T06:23:00.175Z,18.60
2018-06-30T06:25:27.760Z,14.93
2018-06-30T06:27:55.333Z,17.37
2018-06-30T06:30:22.923Z,16.93
2018-06-30T06:32:50.678Z,12.67
2018-06-30T06:35:18.211Z,16.70
2018-06-30T06:37:45.812Z,16.07
2018-06-30T06:40:13.408Z,13.53
2018-06-30T06:42:40.961Z,14.93
2018-06-30T06:45:08.632Z,20.87
2018-06-30T06:47:36.196Z,12.87
2018-06-30T06:50:03.925Z,14.67
2018-06-30T06:52:31.615Z,13.07
2018-06-30T06:54:59.184Z,13.27
2018-06-30T06:57:26.825Z,12.97
2018-06-30T06:59:54.492Z,12.43
2018-06-30T07:02:22.088Z,10.27
2018-06-30T07:04:49.668Z,13.93
2018-06-30T07:07:17.231Z,11.22
2018-06-30T07:09:44.904Z,10.38
2018-06-30T07:12:12.580Z,9.03
2018-06-30T07:14:40.113Z,13.32
2018-06-30T07:17:07.718Z,8.98
2018-06-30T07:19:35.283Z,10.80
2018-06-30T07:22:02.962Z,10.03
2018-06-30T07:24:30.713Z,9.15
2018-06-30T07:26:58.548Z,6.97
2018-06-30T07:29:26.253Z,11.85
2018-06-30T07:31:53.827Z,10.38
2018-06-30T07:34:21.769Z,9.70
2018-06-30T07:36:49.412Z,6.25
2018-06-30T07:39:17.039Z,8.20
2018-06-30T07:41:44.608Z,7.12
2018-06-30T07:44:12.165Z,9.35
2018-06-30T07:46:39.777Z,10.65
2018-06-30T07:49:07.480Z,8.23
2018-06-30T07:51:35.072Z,7.20
2018-06-30T07:54:02.733Z,7.62
2018-06-30T07:56:30.443Z,6.55
2018-06-30T07:59:00.718Z,6.85
2018-06-30T08:01:28.366Z,10.30
2018-06-30T08:03:55.959Z,7.05
2018-06-30T08:06:23.500Z,7.62
2018-06-30T08:08:51.092Z,7.70
2018-06-30T08:11:21.518Z,8.68
2018-06-30T08:13:49.053Z,7.15
2018-06-30T08:16:19.712Z,5.83
2018-06-30T08:18:47.268Z,5.10
2018-06-30T08:21:14.939Z,7.62
2018-06-30T08:23:42.555Z,9.70
2018-06-30T08:26:10.275Z,10.28
2018-06-30T08:28:38.600Z,5.87
2018-06-30T08:31:06.475Z,6.83
2018-06-30T08:33:34.166Z,8.00
2018-06-30T08:36:01.831Z,6.08
2018-06-30T08:38:29.561Z,7.53
2018-06-30T08:40:57.197Z,6.20
2018-06-30T08:43:24.805Z,6.15
2018-06-30T08:45:52.424Z,4.85
2018-06-30T08:48:20.056Z,6.58
2018-06-30T08:50:47.815Z,5.90
2018-06-30T08:53:15.435Z,5.22
2018-06-30T08:55:43.136Z,5.72
2018-06-30T08:58:10.932Z,6.70
2018-06-30T09:00:38.526Z,5.50
2018-06-30T09:03:06.141Z,5.83
2018-06-30T09:05:33.748Z,7.53
2018-06-30T09:08:01.400Z,5.85
2018-06-30T09:10:28.960Z,8.03
2018-06-30T09:12:56.528Z,6.92
2018-06-30T09:15:24.127Z,7.72
2018-06-30T09:17:51.800Z,6.25
2018-06-30T09:20:19.483Z,5.70
2018-06-30T09:22:47.199Z,5.20
2018-06-30T09:25:15.444Z,5.03
2018-06-30T09:27:42.999Z,9.83
2018-06-30T09:30:10.628Z,5.17
2018-06-30T09:32:38.316Z,4.72
2018-06-30T09:35:06.076Z,4.50
2018-06-30T09:37:33.589Z,4.97
2018-06-30T09:40:01.168Z,7.10
2018-06-30T09:42:28.731Z,6.33
2018-06-30T09:44:56.304Z,8.43
2018-06-30T09:47:24.235Z,8.38
2018-06-30T09:49:51.972Z,4.78
2018-06-30T09:52:19.678Z,7.08
2018-06-30T09:54:47.403Z,6.17
2018-06-30T09:57:15.042Z,5.05
2018-06-30T09:59:42.776Z,4.10
2018-06-30T10:02:10.394Z,5.60
2018-06-30T10:04:38.002Z,4.95
2018-06-30T10:07:05.927Z,3.72
2018-06-30T10:09:33.700Z,5.03
2018-06-30T10:12:01.295Z,4.70
2018-06-30T10:14:29.015Z,4.28
2018-06-30T10:16:57.112Z,5.42
2018-06-30T10:19:24.884Z,4.05
2018-06-30T10:21:52.901Z,6.30
2018-06-30T10:24:20.527Z,5.97
2018-06-30T10:26:48.240Z,6.53
2018-06-30T10:29:15.995Z,4.37
2018-06-30T10:31:43.567Z,4.58
2018-06-30T10:34:11.194Z,4.67
2018-06-30T10:36:38.773Z,5.45
2018-06-30T10:39:09.255Z,6.35
2018-06-30T10:41:37.103Z,6.12
2018-06-30T10:44:04.763Z,5.28
2018-06-30T10:46:32.540Z,3.58
2018-06-30T10:49:00.294Z,4.72
2018-06-30T10:51:28.974Z,5.03
2018-06-30T10:53:57.577Z,4.47
2018-06-30T10:56:25.316Z,6.65
2018-06-30T10:58:52.947Z,5.37
2018-06-30T11:01:23.213Z,6.95
2018-06-30T11:03:50.955Z,6.42
2018-06-30T11:06:18.714Z,5.72
2018-06-30T11:08:46.403Z,4.87
2018-06-30T11:11:14.143Z,5.75
2018-06-30T11:13:41.759Z,4.03
2018-06-30T11:16:09.455Z,4.70
2018-06-30T11:18:37.071Z,4.17
2018-06-30T11:21:04.945Z,4.28
2018-06-30T11:23:33.022Z,4.42
2018-06-30T11:26:00.708Z,5.92
2018-06-30T11:28:28.251Z,5.12
2018-06-30T11:30:55.935Z,5.00
2018-06-30T11:33:23.532Z,3.52
2018-06-30T11:35:51.258Z,3.65
2018-06-30T11:38:18.991Z,6.75
2018-06-30T11:40:46.583Z,6.08
2018-06-30T11:43:14.564Z,5.15
2018-06-30T11:45:42.206Z,5.45
2018-06-30T11:48:09.961Z,7.30
2018-06-30T11:50:37.993Z,3.02
2018-06-30T11:53:05.717Z,5.70
2018-06-30T11:55:33.587Z,5.58
2018-06-30T11:58:01.256Z,6.47
2018-06-30T12:00:28.900Z,5.47
2018-06-30T12:02:57.518Z,6.62
2018-06-30T12:05:25.340Z,6.65
2018-06-30T12:07:54.533Z,4.05
2018-06-30T12:10:22.248Z,9.25
2018-06-30T12:12:49.832Z,5.45
2018-06-30T12:15:17.400Z,7.25
2018-06-30T12:17:45.097Z,6.65
2018-06-30T12:20:12.777Z,5.22
2018-06-30T12:22:40.484Z,6.70
2018-06-30T12:25:08.256Z,6.85
2018-06-30T12:27:36.263Z,3.70
2018-06-30T12:30:04.989Z,6.25
2018-06-30T12:32:32.641Z,3.72
2018-06-30T12:35:00.401Z,4.90
2018-06-30T12:37:28.099Z,5.00
2018-06-30T12:39:55.727Z,4.95
2018-06-30T12:42:23.425Z,7.50
2018-06-30T12:44:51.531Z,6.40
2018-06-30T12:47:19.260Z,7.05
2018-06-30T12:49:47.020Z,2.67
2018-06-30T12:52:14.617Z,10.82
2018-06-30T12:54:42.394Z,4.65
2018-06-30T12:57:10.016Z,3.22
2018-06-30T12:59:37.663Z,6.08
2018-06-30T13:02:05.339Z,3.37
2018-06-30T13:04:33.929Z,5.08
2018-06-30T13:07:01.589Z,7.53
2018-06-30T13:09:29.145Z,2.85
2018-06-30T13:11:56.817Z,3.72
2018-06-30T13:14:24.572Z,2.92
2018-06-30T13:16:52.199Z,4.40
2018-06-30T13:19:19.820Z,3.75
2018-06-30T13:21:47.432Z,4.72
2018-06-30T13:24:15.116Z,2.98
2018-06-30T13:26:42.877Z,6.37
2018-06-30T13:29:10.476Z,4.87
2018-06-30T13:31:38.199Z,6.12
2018-06-30T13:34:06.567Z,6.00
2018-06-30T13:36:34.171Z,4.85
2018-06-30T13:39:01.792Z,3.80
2018-06-30T13:41:29.856Z,3.17
2018-06-30T13:43:57.691Z,4.47
2018-06-30T13:46:26.744Z,3.83
2018-06-30T13:48:54.383Z,5.20
2018-06-30T13:51:26.635Z,9.00
2018-06-30T13:53:54.557Z,4.67
2018-06-30T13:56:23.093Z,4.67
2018-06-30T13:58:53.131Z,3.80
2018-06-30T14:01:20.751Z,5.05
2018-06-30T14:03:48.841Z,6.27
2018-06-30T14:06:16.549Z,3.93
2018-06-30T14:08:44.321Z,3.27
2018-06-30T14:11:11.968Z,2.10
2018-06-30T14:13:39.655Z,6.37
2018-06-30T14:16:07.492Z,3.17
2018-06-30T14:18:35.119Z,4.47
2018-06-30T14:21:03.076Z,2.87
2018-06-30T14:23:32.134Z,5.70
2018-06-30T14:26:00.144Z,4.43
2018-06-30T14:28:27.800Z,2.17
2018-06-30T14:30:55.457Z,2.27
2018-06-30T14:33:23.061Z,4.43
2018-06-30T14:35:50.604Z,5.27
2018-06-30T14:38:18.187Z,5.40
2018-06-30T14:40:45.849Z,5.83
2018-06-30T14:43:13.444Z,1.97
2018-06-30T14:45:41.111Z,2.60
2018-06-30T14:48:08.753Z,2.00
2018-06-30T14:50:36.420Z,4.83
2018-06-30T14:53:04.090Z,6.50
2018-06-30T14:55:31.719Z,8.97
2018-06-30T14:57:59.360Z,25.50
2018-06-30T15:00:27.010Z,5.47
2018-06-30T15:02:54.679Z,9.63
2018-06-30T15:05:22.578Z,2.83
2018-06-30T15:07:50.486Z,2.70
2018-06-30T15:10:18.904Z,6.00
2018-06-30T15:12:46.536Z,3.40
2018-06-30T15:15:14.165Z,3.63
2018-06-30T15:17:42.005Z,2.27
2018-06-30T15:20:09.720Z,3.17
2018-06-30T15:22:37.320Z,3.33
2018-06-30T15:25:05.400Z,5.30
2018-06-30T15:27:32.945Z,3.90
2018-06-30T15:30:00.611Z,3.97
2018-06-30T15:32:28.471Z,4.70
2018-06-30T15:34:56.106Z,4.53
2018-06-30T15:37:23.726Z,1.90
2018-06-30T15:39:51.312Z,3.77
2018-06-30T15:42:18.988Z,4.23
2018-06-30T15:44:46.765Z,2.13
2018-06-30T15:47:14.358Z,2.70
2018-06-30T15:49:42.027Z,2.23
2018-06-30T15:52:09.744Z,5.93
2018-06-30T15:54:37.347Z,5.50
2018-06-30T15:57:04.940Z,6.83
2018-06-30T15:59:32.546Z,4.43
2018-06-30T16:02:00.226Z,2.10
2018-06-30T16:04:27.812Z,3.17
2018-06-30T16:06:55.420Z,3.33
2018-06-30T16:09:23.069Z,4.27
2018-06-30T16:11:51.766Z,9.77
2018-06-30T16:14:19.423Z,4.07
2018-06-30T16:16:47.116Z,8.63
2018-06-30T16:19:14.709Z,5.53
2018-06-30T16:21:42.345Z,5.43
2018-06-30T16:24:10.010Z,4.33
2018-06-30T16:26:41.336Z,3.13
2018-06-30T16:29:10.344Z,1.40
2018-06-30T16:31:38.067Z,7.33
2018-06-30T16:34:05.702Z,3.20
2018-06-30T16:36:33.342Z,4.00
2018-06-30T16:39:01.027Z,3.73
2018-06-30T16:41:28.634Z,4.50
2018-06-30T16:43:56.229Z,5.57
2018-06-30T16:46:23.964Z,5.00
2018-06-30T16:48:54.020Z,1.73
2018-06-30T16:51:21.704Z,5.10
2018-06-30T16:53:49.315Z,4.57
2018-06-30T16:56:16.922Z,2.53
2018-06-30T16:58:45.356Z,4.17
2018-06-30T17:01:13.040Z,3.57
2018-06-30T17:03:40.917Z,2.13
2018-06-30T17:06:08.639Z,1.40
2018-06-30T17:08:36.277Z,1.23
2018-06-30T17:11:03.932Z,2.50
2018-06-30T17:13:31.660Z,5.00
2018-06-30T17:15:59.715Z,2.63
2018-06-30T17:18:27.846Z,2.50
2018-06-30T17:20:55.504Z,2.40
2018-06-30T17:23:23.148Z,2.20
2018-06-30T17:25:50.730Z,2.03
2018-06-30T17:28:18.352Z,3.77
2018-06-30T17:30:45.956Z,3.00
2018-06-30T17:33:13.634Z,1.50
2018-06-30T17:35:41.294Z,4.87
2018-06-30T17:38:08.967Z,3.13
2018-06-30T17:40:36.823Z,4.27
2018-06-30T17:43:05.009Z,5.00
2018-06-30T17:45:32.744Z,3.67
2018-06-30T17:48:00.523Z,1.63
2018-06-30T17:50:28.196Z,4.20
2018-06-30T17:52:55.882Z,1.37
2018-06-30T17:55:23.561Z,2.37
2018-06-30T17:57:51.534Z,3.73
2018-06-30T18:00:19.223Z,1.40
2018-06-30T18:02:46.903Z,3.90
2018-06-30T18:05:14.715Z,2.60
2018-06-30T18:07:42.457Z,2.60
2018-06-30T18:10:10.283Z,1.57
2018-06-30T18:12:38.183Z,4.07
2018-06-30T18:15:05.831Z,3.30
2018-06-30T18:17:33.416Z,1.50
2018-06-30T18:20:01.128Z,4.97
2018-06-30T18:22:28.695Z,3.30
2018-06-30T18:24:56.323Z,1.50
2018-06-30T18:27:24.247Z,0.77
2018-06-30T18:29:52.295Z,3.67
2018-06-30T18:32:19.938Z,3.00
2018-06-30T18:34:47.675Z,2.83
2018-06-30T18:37:15.469Z,2.60
2018-06-30T18:39:43.103Z,3.57
2018-06-30T18:42:10.758Z,5.23
2018-06-30T18:44:38.402Z,1.83
2018-06-30T18:48:35.600Z,3.67
2018-06-30T18:51:03.314Z,1.43
2018-06-30T18:53:30.939Z,5.00
2018-06-30T18:55:58.672Z,3.63
2018-06-30T18:58:26.284Z,1.80
2018-06-30T19:00:53.872Z,3.20
2018-06-30T19:03:21.804Z,4.10
2018-06-30T19:05:49.432Z,3.63
2018-06-30T19:08:17.195Z,2.57
2018-06-30T19:10:44.826Z,4.90
2018-06-30T19:13:12.443Z,2.03
2018-06-30T19:15:40.081Z,1.57
2018-06-30T19:18:07.688Z,2.90
2018-06-30T19:20:35.367Z,3.03
2018-06-30T19:23:03.043Z,1.80
2018-06-30T19:25:30.672Z,4.73
2018-06-30T19:27:58.359Z,1.77
2018-06-30T19:30:26.559Z,3.30
2018-06-30T19:32:54.356Z,3.13
2018-06-30T19:35:22.024Z,1.20
2018-06-30T19:37:49.631Z,2.03
2018-06-30T19:40:17.285Z,2.50
2018-06-30T19:42:44.933Z,4.50
2018-06-30T19:45:12.570Z,1.33
2018-06-30T19:47:40.170Z,2.20
2018-06-30T19:50:07.808Z,1.07
2018-06-30T19:52:35.467Z,3.13
2018-06-30T19:55:03.278Z,1.07
2018-06-30T19:57:30.974Z,3.73
2018-06-30T19:59:58.774Z,3.03
2018-06-30T20:02:26.450Z,2.63
2018-06-30T20:04:54.104Z,1.43
2018-06-30T20:07:21.810Z,4.10
2018-06-30T20:09:49.484Z,7.00
2018-06-30T20:12:17.183Z,2.77
2018-06-30T20:14:44.832Z,4.07
2018-06-30T20:17:12.576Z,3.50
2018-06-30T20:19:40.485Z,3.97
2018-06-30T20:22:08.131Z,5.30
2018-06-30T20:24:36.740Z,3.87
2018-06-30T20:27:04.766Z,5.20
2018-06-30T20:29:32.480Z,1.77
2018-06-30T20:32:00.208Z,1.00
2018-06-30T20:34:33.664Z,3.47
2018-06-30T20:37:06.610Z,2.43
2018-06-30T20:39:40.485Z,2.03
2018-06-30T20:42:10.156Z,2.17
2018-06-30T20:44:38.064Z,2.20
2018-06-30T20:47:06.061Z,2.63
2018-06-30T20:49:34.226Z,3.80
2018-06-30T20:52:02.066Z,3.50
2018-06-30T20:54:29.693Z,2.40
2018-06-30T20:56:57.405Z,1.20
2018-06-30T20:59:25.059Z,1.97
2018-06-30T21:01:52.731Z,2.20
2018-06-30T21:04:20.388Z,1.83
2018-06-30T21:06:48.036Z,2.37
2018-06-30T21:09:15.638Z,3.13
2018-06-30T21:11:43.375Z,1.80
2018-06-30T21:14:11.199Z,4.87
2018-06-30T21:16:39.047Z,2.07
2018-06-30T21:19:06.753Z,3.03
2018-06-30T21:21:36.100Z,3.10
2018-06-30T21:24:03.902Z,3.03
2018-06-30T21:26:33.349Z,3.97
2018-06-30T21:29:00.980Z,3.50
2018-06-30T21:31:32.364Z,1.90
2018-06-30T21:33:59.968Z,3.00
2018-06-30T21:36:27.622Z,1.40
2018-06-30T21:38:55.420Z,2.27
2018-06-30T21:41:23.141Z,5.60
2018-06-30T21:43:50.722Z,2.97
2018-06-30T21:46:18.354Z,3.17
2018-06-30T21:48:46.125Z,4.63
2018-06-30T21:51:13.849Z,2.73
2018-06-30T21:53:41.480Z,1.90
2018-06-30T21:56:09.567Z,3.03
2018-06-30T21:58:37.184Z,1.87
2018-06-30T22:01:10.437Z,2.17
2018-06-30T22:03:38.106Z,3.20
2018-06-30T22:06:05.910Z,2.57
2018-06-30T22:08:33.523Z,1.20
2018-06-30T22:11:01.888Z,1.47
2018-06-30T22:13:29.305Z,3.03
2018-06-30T22:15:56.909Z,1.30
2018-06-30T22:18:24.629Z,2.47
2018-06-30T22:20:52.260Z,3.37
2018-06-30T22:23:20.124Z,4.10
2018-06-30T22:25:48.005Z,2.20
2018-06-30T22:28:15.815Z,7.63
2018-06-30T22:30:43.509Z,3.93
2018-06-30T22:33:11.152Z,4.40
2018-06-30T22:38:28.546Z,2.57
2018-06-30T22:40:56.515Z,1.30
2018-06-30T22:43:31.240Z,2.57
2018-06-30T22:46:00.795Z,3.37
2018-06-30T22:48:28.745Z,2.50
2018-06-30T22:50:56.951Z,4.13
2018-06-30T22:53:26.839Z,2.60
2018-06-30T22:56:02.202Z,3.20
2018-06-30T22:58:35.199Z,1.23
2018-06-30T23:01:06.113Z,4.17
2018-06-30T23:03:36.988Z,2.40
2018-06-30T23:06:06.515Z,1.20
2018-06-30T23:08:43.443Z,3.77
2018-06-30T23:11:11.417Z,1.93
2018-06-30T23:13:39.104Z,1.03
2018-06-30T23:16:06.856Z,2.30
2018-06-30T23:18:34.552Z,2.37
2018-06-30T23:21:02.380Z,4.00
2018-06-30T23:23:30.126Z,2.77
2018-06-30T23:25:58.673Z,5.80
2018-06-30T23:28:26.240Z,1.60
2018-06-30T23:30:53.851Z,2.40
2018-06-30T23:33:21.436Z,3.37
2018-06-30T23:35:49.322Z,2.43
2018-06-30T23:38:16.925Z,2.47
2018-06-30T23:40:44.549Z,2.37
2018-06-30T23:43:12.172Z,2.50
2018-06-30T23:45:39.789Z,1.80
2018-06-30T23:48:07.475Z,3.50
2018-06-30T23:50:35.171Z,2.10
2018-06-30T23:53:02.886Z,2.40
2018-06-30T23:55:30.533Z,3.10
2018-06-30T23:57:58.179Z,3.50
